sensor_id;sensor_type;location;lat;lon;timestamp;temperature;humidity
27858;DHT22;16852;51.446;6.528;2023-05-14T00:01:50;16.40;99.90
27858;DHT22;16852;51.446;6.528;2023-05-14T00:03:51;16.40;99.90
27858;DHT22;16852;51.446;6.528;2023-05-14T00:05:51;16.40;99.90
27858;DHT22;16852;51.446;6.528;2023-05-14T00:07:52;16.30;99.90
27858;DHT22;16852;51.446;6.528;2023-05-14T00:09:52;16.30;99.90
27858;DHT22;16852;51.446;6.528;2023-05-14T00:11:53;16.30;99.90
27858;DHT22;16852;51.446;6.528;2023-05-14T00:13:53;16.30;99.90
27858;DHT22;16852;51.446;6.528;2023-05-14T00:15:54;16.20;99.90
27858;DHT22;16852;51.446;6.528;2023-05-14T00:17:55;16.30;99.90
27858;DHT22;16852;51.446;6.528;2023-05-14T00:19:55;16.30;99.90
27858;DHT22;16852;51.446;6.528;2023-05-14T00:21:56;16.20;99.90
27858;DHT22;16852;51.446;6.528;2023-05-14T00:23:56;16.20;99.90
27858;DHT22;16852;51.446;6.528;2023-05-14T00:25:57;16.20;99.90
27858;DHT22;16852;51.446;6.528;2023-05-14T00:27:57;16.10;99.90
27858;DHT22;16852;51.446;6.528;2023-05-14T00:29:58;16.20;99.90
27858;DHT22;16852;51.446;6.528;2023-05-14T00:31:59;16.10;99.90
27858;DHT22;16852;51.446;6.528;2023-05-14T00:33:59;16.10;99.90
27858;DHT22;16852;51.446;6.528;2023-05-14T00:36:00;16.00;99.90
27858;DHT22;16852;51.446;6.528;2023-05-14T00:38:01;16.10;99.90
27858;DHT22;16852;51.446;6.528;2023-05-14T00:40:02;16.00;99.90
27858;DHT22;16852;51.446;6.528;2023-05-14T00:42:03;16.00;99.90
27858;DHT22;16852;51.446;6.528;2023-05-14T00:44:04;15.90;99.90
27858;DHT22;16852;51.446;6.528;2023-05-14T00:46:05;15.80;99.90
27858;DHT22;16852;51.446;6.528;2023-05-14T00:48:05;15.70;99.90
27858;DHT22;16852;51.446;6.528;2023-05-14T00:50:06;15.70;99.90
27858;DHT22;16852;51.446;6.528;2023-05-14T00:52:07;15.60;99.90
27858;DHT22;16852;51.446;6.528;2023-05-14T00:54:08;15.70;99.90
27858;DHT22;16852;51.446;6.528;2023-05-14T00:56:10;15.70;99.90
27858;DHT22;16852;51.446;6.528;2023-05-14T00:58:11;15.60;99.90
27858;DHT22;16852;51.446;6.528;2023-05-14T01:00:13;15.60;99.90
27858;DHT22;16852;51.446;6.528;2023-05-14T01:02:13;15.60;99.90
27858;DHT22;16852;51.446;6.528;2023-05-14T01:04:14;15.50;99.90
27858;DHT22;16852;51.446;6.528;2023-05-14T01:11:13;15.40;99.90
27858;DHT22;16852;51.446;6.528;2023-05-14T01:13:37;15.40;99.90
27858;DHT22;16852;51.446;6.528;2023-05-14T01:15:39;15.40;99.90
27858;DHT22;16852;51.446;6.528;2023-05-14T01:18:07;15.30;99.90
27858;DHT22;16852;51.446;6.528;2023-05-14T01:20:09;15.30;99.90
27858;DHT22;16852;51.446;6.528;2023-05-14T01:22:11;15.30;99.90
27858;DHT22;16852;51.446;6.528;2023-05-14T01:24:11;15.30;99.90
27858;DHT22;16852;51.446;6.528;2023-05-14T01:26:12;15.30;99.90
27858;DHT22;16852;51.446;6.528;2023-05-14T01:28:28;15.30;99.90
27858;DHT22;16852;51.446;6.528;2023-05-14T01:30:43;15.30;99.90
27858;DHT22;16852;51.446;6.528;2023-05-14T01:32:53;15.30;99.90
27858;DHT22;16852;51.446;6.528;2023-05-14T01:34:57;15.30;99.90
27858;DHT22;16852;51.446;6.528;2023-05-14T01:36:58;15.20;99.90
27858;DHT22;16852;51.446;6.528;2023-05-14T01:39:00;15.30;99.90
27858;DHT22;16852;51.446;6.528;2023-05-14T01:41:01;15.30;99.90
27858;DHT22;16852;51.446;6.528;2023-05-14T01:43:03;15.30;99.90
27858;DHT22;16852;51.446;6.528;2023-05-14T01:45:04;15.30;99.90
27858;DHT22;16852;51.446;6.528;2023-05-14T01:47:05;15.30;99.90
27858;DHT22;16852;51.446;6.528;2023-05-14T01:49:06;15.30;99.90
27858;DHT22;16852;51.446;6.528;2023-05-14T01:51:06;15.30;99.90
27858;DHT22;16852;51.446;6.528;2023-05-14T01:53:07;15.30;99.90
27858;DHT22;16852;51.446;6.528;2023-05-14T01:55:08;15.20;99.90
27858;DHT22;16852;51.446;6.528;2023-05-14T01:57:08;15.20;99.90
27858;DHT22;16852;51.446;6.528;2023-05-14T01:59:09;15.20;99.90
27858;DHT22;16852;51.446;6.528;2023-05-14T02:01:10;15.20;99.90
27858;DHT22;16852;51.446;6.528;2023-05-14T02:03:10;15.20;99.90
27858;DHT22;16852;51.446;6.528;2023-05-14T02:05:11;15.20;99.90
27858;DHT22;16852;51.446;6.528;2023-05-14T02:07:12;15.20;99.90
27858;DHT22;16852;51.446;6.528;2023-05-14T02:09:13;15.20;99.90
27858;DHT22;16852;51.446;6.528;2023-05-14T02:11:13;15.10;99.90
27858;DHT22;16852;51.446;6.528;2023-05-14T02:13:14;15.10;99.90
27858;DHT22;16852;51.446;6.528;2023-05-14T02:15:14;15.10;99.90
27858;DHT22;16852;51.446;6.528;2023-05-14T02:17:15;15.10;99.90
27858;DHT22;16852;51.446;6.528;2023-05-14T02:19:17;15.10;99.90
27858;DHT22;16852;51.446;6.528;2023-05-14T02:21:17;15.10;99.90
27858;DHT22;16852;51.446;6.528;2023-05-14T02:23:18;15.00;99.90
27858;DHT22;16852;51.446;6.528;2023-05-14T02:25:18;15.00;99.90
27858;DHT22;16852;51.446;6.528;2023-05-14T02:27:19;15.00;99.90
27858;DHT22;16852;51.446;6.528;2023-05-14T02:29:20;15.00;99.90
27858;DHT22;16852;51.446;6.528;2023-05-14T02:31:21;15.00;99.90
27858;DHT22;16852;51.446;6.528;2023-05-14T02:33:21;15.00;99.90
27858;DHT22;16852;51.446;6.528;2023-05-14T02:35:22;14.90;99.90
27858;DHT22;16852;51.446;6.528;2023-05-14T02:37:23;14.90;99.90
27858;DHT22;16852;51.446;6.528;2023-05-14T02:39:23;14.90;99.90
27858;DHT22;16852;51.446;6.528;2023-05-14T02:41:24;14.90;99.90
27858;DHT22;16852;51.446;6.528;2023-05-14T02:43:24;14.80;99.90
27858;DHT22;16852;51.446;6.528;2023-05-14T02:45:25;14.80;99.90
27858;DHT22;16852;51.446;6.528;2023-05-14T02:47:26;14.80;99.90
27858;DHT22;16852;51.446;6.528;2023-05-14T02:49:26;14.80;99.90
27858;DHT22;16852;51.446;6.528;2023-05-14T02:51:27;14.80;99.90
27858;DHT22;16852;51.446;6.528;2023-05-14T02:53:27;14.70;99.90
27858;DHT22;16852;51.446;6.528;2023-05-14T02:55:28;14.80;99.90
27858;DHT22;16852;51.446;6.528;2023-05-14T02:57:28;14.70;99.90
27858;DHT22;16852;51.446;6.528;2023-05-14T02:59:29;14.70;99.90
27858;DHT22;16852;51.446;6.528;2023-05-14T03:01:31;14.70;99.90
27858;DHT22;16852;51.446;6.528;2023-05-14T03:03:32;14.70;99.90
27858;DHT22;16852;51.446;6.528;2023-05-14T03:05:33;14.70;99.90
27858;DHT22;16852;51.446;6.528;2023-05-14T03:07:33;14.70;99.90
27858;DHT22;16852;51.446;6.528;2023-05-14T03:09:34;14.70;99.90
27858;DHT22;16852;51.446;6.528;2023-05-14T03:11:34;14.60;99.90
27858;DHT22;16852;51.446;6.528;2023-05-14T03:13:35;14.60;99.90
27858;DHT22;16852;51.446;6.528;2023-05-14T03:15:36;14.60;99.90
27858;DHT22;16852;51.446;6.528;2023-05-14T03:17:36;14.60;99.90
27858;DHT22;16852;51.446;6.528;2023-05-14T03:19:37;14.60;99.90
27858;DHT22;16852;51.446;6.528;2023-05-14T03:21:37;14.50;99.90
27858;DHT22;16852;51.446;6.528;2023-05-14T03:23:38;14.50;99.90
27858;DHT22;16852;51.446;6.528;2023-05-14T03:25:38;14.50;99.90
27858;DHT22;16852;51.446;6.528;2023-05-14T03:27:39;14.50;99.90
27858;DHT22;16852;51.446;6.528;2023-05-14T03:29:39;14.50;99.90
27858;DHT22;16852;51.446;6.528;2023-05-14T03:31:40;14.50;99.90
27858;DHT22;16852;51.446;6.528;2023-05-14T03:33:41;14.40;99.90
27858;DHT22;16852;51.446;6.528;2023-05-14T03:35:41;14.40;99.90
27858;DHT22;16852;51.446;6.528;2023-05-14T03:37:42;14.40;99.90
27858;DHT22;16852;51.446;6.528;2023-05-14T03:39:42;14.40;99.90
27858;DHT22;16852;51.446;6.528;2023-05-14T03:41:43;14.40;99.90
27858;DHT22;16852;51.446;6.528;2023-05-14T03:43:44;14.40;99.90
27858;DHT22;16852;51.446;6.528;2023-05-14T03:45:45;14.40;99.90
27858;DHT22;16852;51.446;6.528;2023-05-14T03:47:46;14.40;99.90
27858;DHT22;16852;51.446;6.528;2023-05-14T03:49:46;14.40;99.90
27858;DHT22;16852;51.446;6.528;2023-05-14T03:51:47;14.30;99.90
27858;DHT22;16852;51.446;6.528;2023-05-14T03:53:48;14.30;99.90
27858;DHT22;16852;51.446;6.528;2023-05-14T03:55:48;14.30;99.90
27858;DHT22;16852;51.446;6.528;2023-05-14T03:57:49;14.30;99.90
27858;DHT22;16852;51.446;6.528;2023-05-14T03:59:49;14.30;99.90
27858;DHT22;16852;51.446;6.528;2023-05-14T04:01:50;14.30;99.90
27858;DHT22;16852;51.446;6.528;2023-05-14T04:03:50;14.30;99.90
27858;DHT22;16852;51.446;6.528;2023-05-14T04:05:51;14.20;99.90
27858;DHT22;16852;51.446;6.528;2023-05-14T04:07:51;14.20;99.90
27858;DHT22;16852;51.446;6.528;2023-05-14T04:09:52;14.20;99.90
27858;DHT22;16852;51.446;6.528;2023-05-14T04:11:53;14.20;99.90
27858;DHT22;16852;51.446;6.528;2023-05-14T04:13:53;14.20;99.90
27858;DHT22;16852;51.446;6.528;2023-05-14T04:15:54;14.20;99.90
27858;DHT22;16852;51.446;6.528;2023-05-14T04:17:54;14.20;99.90
27858;DHT22;16852;51.446;6.528;2023-05-14T04:19:55;14.10;99.90
27858;DHT22;16852;51.446;6.528;2023-05-14T04:21:56;14.20;99.90
27858;DHT22;16852;51.446;6.528;2023-05-14T04:23:56;14.20;99.90
27858;DHT22;16852;51.446;6.528;2023-05-14T04:25:57;14.20;99.90
27858;DHT22;16852;51.446;6.528;2023-05-14T04:27:58;14.20;99.90
27858;DHT22;16852;51.446;6.528;2023-05-14T04:29:58;14.20;99.90
27858;DHT22;16852;51.446;6.528;2023-05-14T04:31:59;14.20;99.90
27858;DHT22;16852;51.446;6.528;2023-05-14T04:34:00;14.20;99.90
27858;DHT22;16852;51.446;6.528;2023-05-14T04:36:00;14.10;99.90
27858;DHT22;16852;51.446;6.528;2023-05-14T04:38:01;14.20;99.90
27858;DHT22;16852;51.446;6.528;2023-05-14T04:40:03;14.20;99.90
27858;DHT22;16852;51.446;6.528;2023-05-14T04:42:04;14.20;99.90
27858;DHT22;16852;51.446;6.528;2023-05-14T04:44:06;14.20;99.90
27858;DHT22;16852;51.446;6.528;2023-05-14T04:46:06;14.20;99.90
27858;DHT22;16852;51.446;6.528;2023-05-14T04:48:08;14.20;99.90
27858;DHT22;16852;51.446;6.528;2023-05-14T04:50:09;14.20;99.90
27858;DHT22;16852;51.446;6.528;2023-05-14T04:52:10;14.20;99.90
27858;DHT22;16852;51.446;6.528;2023-05-14T04:54:10;14.20;99.90
27858;DHT22;16852;51.446;6.528;2023-05-14T04:56:11;14.30;99.90
27858;DHT22;16852;51.446;6.528;2023-05-14T04:58:12;14.30;99.90
27858;DHT22;16852;51.446;6.528;2023-05-14T05:00:12;14.30;99.90
27858;DHT22;16852;51.446;6.528;2023-05-14T05:02:13;14.30;99.90
27858;DHT22;16852;51.446;6.528;2023-05-14T05:04:14;14.30;99.90
27858;DHT22;16852;51.446;6.528;2023-05-14T05:06:15;14.30;99.90
27858;DHT22;16852;51.446;6.528;2023-05-14T05:08:15;14.30;99.90
27858;DHT22;16852;51.446;6.528;2023-05-14T05:10:16;14.30;99.90
27858;DHT22;16852;51.446;6.528;2023-05-14T05:12:16;14.30;99.90
27858;DHT22;16852;51.446;6.528;2023-05-14T05:14:17;14.30;99.90
27858;DHT22;16852;51.446;6.528;2023-05-14T05:16:17;14.30;99.90
27858;DHT22;16852;51.446;6.528;2023-05-14T05:18:18;14.40;99.90
27858;DHT22;16852;51.446;6.528;2023-05-14T05:20:19;14.40;99.90
27858;DHT22;16852;51.446;6.528;2023-05-14T05:22:19;14.40;99.90
27858;DHT22;16852;51.446;6.528;2023-05-14T05:24:20;14.40;99.90
27858;DHT22;16852;51.446;6.528;2023-05-14T05:26:20;14.40;99.90
27858;DHT22;16852;51.446;6.528;2023-05-14T05:28:21;14.50;99.90
27858;DHT22;16852;51.446;6.528;2023-05-14T05:30:22;14.50;99.90
27858;DHT22;16852;51.446;6.528;2023-05-14T05:32:22;14.50;99.90
27858;DHT22;16852;51.446;6.528;2023-05-14T05:34:23;14.50;99.90
27858;DHT22;16852;51.446;6.528;2023-05-14T05:36:24;14.60;99.90
27858;DHT22;16852;51.446;6.528;2023-05-14T05:38:24;14.60;99.90
27858;DHT22;16852;51.446;6.528;2023-05-14T05:40:25;14.60;99.90
27858;DHT22;16852;51.446;6.528;2023-05-14T05:42:26;14.70;99.90
27858;DHT22;16852;51.446;6.528;2023-05-14T05:44:26;14.70;99.90
27858;DHT22;16852;51.446;6.528;2023-05-14T05:46:27;14.70;99.90
27858;DHT22;16852;51.446;6.528;2023-05-14T05:48:27;14.70;99.90
27858;DHT22;16852;51.446;6.528;2023-05-14T05:50:29;14.80;99.90
27858;DHT22;16852;51.446;6.528;2023-05-14T05:52:31;14.80;99.90
27858;DHT22;16852;51.446;6.528;2023-05-14T05:54:31;14.90;99.90
27858;DHT22;16852;51.446;6.528;2023-05-14T05:56:32;15.00;99.90
27858;DHT22;16852;51.446;6.528;2023-05-14T05:58:32;15.00;99.90
27858;DHT22;16852;51.446;6.528;2023-05-14T06:00:33;15.10;99.90
27858;DHT22;16852;51.446;6.528;2023-05-14T06:02:34;15.10;99.90
27858;DHT22;16852;51.446;6.528;2023-05-14T06:04:34;15.20;99.90
27858;DHT22;16852;51.446;6.528;2023-05-14T06:06:35;15.20;99.90
27858;DHT22;16852;51.446;6.528;2023-05-14T06:08:36;15.30;99.90
27858;DHT22;16852;51.446;6.528;2023-05-14T06:10:37;15.50;99.90
27858;DHT22;16852;51.446;6.528;2023-05-14T06:12:37;15.70;99.90
27858;DHT22;16852;51.446;6.528;2023-05-14T06:14:38;16.00;99.90
27858;DHT22;16852;51.446;6.528;2023-05-14T06:16:38;16.30;99.90
27858;DHT22;16852;51.446;6.528;2023-05-14T06:18:39;16.70;99.90
27858;DHT22;16852;51.446;6.528;2023-05-14T06:20:40;17.10;99.90
27858;DHT22;16852;51.446;6.528;2023-05-14T06:22:40;17.40;99.90
27858;DHT22;16852;51.446;6.528;2023-05-14T06:24:41;17.80;99.90
27858;DHT22;16852;51.446;6.528;2023-05-14T06:26:41;18.20;99.90
27858;DHT22;16852;51.446;6.528;2023-05-14T06:28:42;18.50;99.90
27858;DHT22;16852;51.446;6.528;2023-05-14T06:30:43;18.90;99.90
27858;DHT22;16852;51.446;6.528;2023-05-14T06:32:43;19.20;99.90
27858;DHT22;16852;51.446;6.528;2023-05-14T06:34:44;19.60;99.90
27858;DHT22;16852;51.446;6.528;2023-05-14T06:36:44;19.90;99.90
27858;DHT22;16852;51.446;6.528;2023-05-14T06:38:45;20.20;99.90
27858;DHT22;16852;51.446;6.528;2023-05-14T06:40:45;20.50;99.90
27858;DHT22;16852;51.446;6.528;2023-05-14T06:42:46;20.80;99.90
27858;DHT22;16852;51.446;6.528;2023-05-14T06:44:47;20.90;99.90
27858;DHT22;16852;51.446;6.528;2023-05-14T06:46:47;21.10;99.90
27858;DHT22;16852;51.446;6.528;2023-05-14T06:48:48;21.20;99.90
27858;DHT22;16852;51.446;6.528;2023-05-14T06:50:48;21.30;99.90
27858;DHT22;16852;51.446;6.528;2023-05-14T06:52:49;21.40;99.90
27858;DHT22;16852;51.446;6.528;2023-05-14T06:54:50;21.50;99.90
27858;DHT22;16852;51.446;6.528;2023-05-14T06:56:50;21.60;99.90
27858;DHT22;16852;51.446;6.528;2023-05-14T06:58:51;21.70;99.90
27858;DHT22;16852;51.446;6.528;2023-05-14T07:00:52;21.60;99.90
27858;DHT22;16852;51.446;6.528;2023-05-14T07:02:52;21.70;99.90
27858;DHT22;16852;51.446;6.528;2023-05-14T07:04:53;21.70;99.90
27858;DHT22;16852;51.446;6.528;2023-05-14T07:06:53;21.80;99.90
27858;DHT22;16852;51.446;6.528;2023-05-14T07:08:54;21.80;99.90
27858;DHT22;16852;51.446;6.528;2023-05-14T07:10:54;21.90;99.90
27858;DHT22;16852;51.446;6.528;2023-05-14T07:12:56;21.90;99.90
27858;DHT22;16852;51.446;6.528;2023-05-14T07:14:57;21.90;99.90
27858;DHT22;16852;51.446;6.528;2023-05-14T07:16:57;21.80;99.90
27858;DHT22;16852;51.446;6.528;2023-05-14T07:18:58;21.80;99.90
27858;DHT22;16852;51.446;6.528;2023-05-14T07:20:59;21.70;99.90
27858;DHT22;16852;51.446;6.528;2023-05-14T07:22:59;21.50;99.90
27858;DHT22;16852;51.446;6.528;2023-05-14T07:25:00;21.30;99.90
27858;DHT22;16852;51.446;6.528;2023-05-14T07:27:02;21.00;99.90
27858;DHT22;16852;51.446;6.528;2023-05-14T07:29:02;20.60;99.90
27858;DHT22;16852;51.446;6.528;2023-05-14T07:31:03;20.40;99.90
27858;DHT22;16852;51.446;6.528;2023-05-14T07:33:08;20.10;99.90
27858;DHT22;16852;51.446;6.528;2023-05-14T07:35:08;19.80;99.90
27858;DHT22;16852;51.446;6.528;2023-05-14T07:37:11;19.80;99.90
27858;DHT22;16852;51.446;6.528;2023-05-14T07:39:11;19.80;99.90
27858;DHT22;16852;51.446;6.528;2023-05-14T07:41:12;19.90;99.90
27858;DHT22;16852;51.446;6.528;2023-05-14T07:43:13;20.00;99.90
27858;DHT22;16852;51.446;6.528;2023-05-14T07:45:13;20.00;99.90
27858;DHT22;16852;51.446;6.528;2023-05-14T07:47:14;20.10;99.90
27858;DHT22;16852;51.446;6.528;2023-05-14T07:49:15;20.20;99.90
27858;DHT22;16852;51.446;6.528;2023-05-14T07:51:15;20.20;99.90
27858;DHT22;16852;51.446;6.528;2023-05-14T07:53:16;20.20;99.90
27858;DHT22;16852;51.446;6.528;2023-05-14T07:55:17;20.30;99.90
27858;DHT22;16852;51.446;6.528;2023-05-14T07:57:18;20.30;99.90
27858;DHT22;16852;51.446;6.528;2023-05-14T07:59:19;20.30;99.90
27858;DHT22;16852;51.446;6.528;2023-05-14T08:01:19;20.30;99.90
27858;DHT22;16852;51.446;6.528;2023-05-14T08:03:20;20.30;99.90
27858;DHT22;16852;51.446;6.528;2023-05-14T08:05:21;20.20;99.90
27858;DHT22;16852;51.446;6.528;2023-05-14T08:07:21;20.30;99.90
27858;DHT22;16852;51.446;6.528;2023-05-14T08:09:22;20.30;99.90
27858;DHT22;16852;51.446;6.528;2023-05-14T08:11:23;20.30;99.90
27858;DHT22;16852;51.446;6.528;2023-05-14T08:13:23;20.40;99.90
27858;DHT22;16852;51.446;6.528;2023-05-14T08:15:24;20.50;99.90
27858;DHT22;16852;51.446;6.528;2023-05-14T08:17:25;20.50;99.90
27858;DHT22;16852;51.446;6.528;2023-05-14T08:19:25;20.50;99.90
27858;DHT22;16852;51.446;6.528;2023-05-14T08:21:27;20.50;99.90
27858;DHT22;16852;51.446;6.528;2023-05-14T08:23:27;20.50;99.90
27858;DHT22;16852;51.446;6.528;2023-05-14T08:25:28;20.50;99.90
27858;DHT22;16852;51.446;6.528;2023-05-14T08:27:28;20.50;99.90
27858;DHT22;16852;51.446;6.528;2023-05-14T08:29:29;20.60;99.90
27858;DHT22;16852;51.446;6.528;2023-05-14T08:31:30;20.70;99.90
27858;DHT22;16852;51.446;6.528;2023-05-14T08:33:30;20.80;99.90
27858;DHT22;16852;51.446;6.528;2023-05-14T08:35:31;20.90;99.90
27858;DHT22;16852;51.446;6.528;2023-05-14T08:37:31;21.00;99.90
27858;DHT22;16852;51.446;6.528;2023-05-14T08:39:32;21.20;99.90
27858;DHT22;16852;51.446;6.528;2023-05-14T08:41:33;21.20;99.90
27858;DHT22;16852;51.446;6.528;2023-05-14T08:44:02;21.30;99.90
27858;DHT22;16852;51.446;6.528;2023-05-14T08:46:05;21.40;99.90
27858;DHT22;16852;51.446;6.528;2023-05-14T08:48:06;21.50;99.90
27858;DHT22;16852;51.446;6.528;2023-05-14T08:50:10;21.60;99.90
27858;DHT22;16852;51.446;6.528;2023-05-14T08:52:11;21.60;99.90
27858;DHT22;16852;51.446;6.528;2023-05-14T08:54:15;21.70;99.90
27858;DHT22;16852;51.446;6.528;2023-05-14T08:56:17;21.80;99.90
27858;DHT22;16852;51.446;6.528;2023-05-14T08:58:18;21.90;99.90
27858;DHT22;16852;51.446;6.528;2023-05-14T09:00:19;22.10;99.90
27858;DHT22;16852;51.446;6.528;2023-05-14T09:02:22;22.20;99.90
27858;DHT22;16852;51.446;6.528;2023-05-14T09:04:24;22.10;99.90
27858;DHT22;16852;51.446;6.528;2023-05-14T09:06:25;22.30;99.90
27858;DHT22;16852;51.446;6.528;2023-05-14T09:08:26;22.30;99.90
27858;DHT22;16852;51.446;6.528;2023-05-14T09:10:27;22.40;99.90
27858;DHT22;16852;51.446;6.528;2023-05-14T09:12:27;22.50;99.90
27858;DHT22;16852;51.446;6.528;2023-05-14T09:14:28;22.60;99.90
27858;DHT22;16852;51.446;6.528;2023-05-14T09:16:28;22.70;99.90
27858;DHT22;16852;51.446;6.528;2023-05-14T09:18:30;22.50;99.90
27858;DHT22;16852;51.446;6.528;2023-05-14T09:20:31;22.60;99.90
27858;DHT22;16852;51.446;6.528;2023-05-14T09:22:33;22.50;99.90
27858;DHT22;16852;51.446;6.528;2023-05-14T09:24:34;22.50;99.90
27858;DHT22;16852;51.446;6.528;2023-05-14T09:26:34;22.50;99.90
27858;DHT22;16852;51.446;6.528;2023-05-14T09:28:39;22.50;99.90
27858;DHT22;16852;51.446;6.528;2023-05-14T09:30:40;22.50;99.90
27858;DHT22;16852;51.446;6.528;2023-05-14T09:32:42;22.50;99.90
27858;DHT22;16852;51.446;6.528;2023-05-14T09:34:43;22.60;99.90
27858;DHT22;16852;51.446;6.528;2023-05-14T09:36:43;22.70;99.90
27858;DHT22;16852;51.446;6.528;2023-05-14T09:38:44;22.80;99.90
27858;DHT22;16852;51.446;6.528;2023-05-14T09:40:45;22.90;99.90
27858;DHT22;16852;51.446;6.528;2023-05-14T09:42:46;23.00;99.90
27858;DHT22;16852;51.446;6.528;2023-05-14T09:44:48;23.10;99.90
27858;DHT22;16852;51.446;6.528;2023-05-14T09:46:49;23.10;99.90
27858;DHT22;16852;51.446;6.528;2023-05-14T09:48:50;23.30;99.90
27858;DHT22;16852;51.446;6.528;2023-05-14T09:50:51;23.30;99.90
27858;DHT22;16852;51.446;6.528;2023-05-14T09:52:54;23.40;99.90
27858;DHT22;16852;51.446;6.528;2023-05-14T09:54:55;23.50;99.90
27858;DHT22;16852;51.446;6.528;2023-05-14T09:56:55;23.50;99.90
27858;DHT22;16852;51.446;6.528;2023-05-14T09:58:56;23.50;99.90
27858;DHT22;16852;51.446;6.528;2023-05-14T10:00:57;23.60;99.90
27858;DHT22;16852;51.446;6.528;2023-05-14T10:02:58;23.60;99.90
27858;DHT22;16852;51.446;6.528;2023-05-14T10:05:03;23.70;99.90
27858;DHT22;16852;51.446;6.528;2023-05-14T10:07:04;23.80;99.90
27858;DHT22;16852;51.446;6.528;2023-05-14T10:09:09;23.80;99.90
27858;DHT22;16852;51.446;6.528;2023-05-14T10:11:19;23.90;99.90
27858;DHT22;16852;51.446;6.528;2023-05-14T10:13:28;23.90;99.90
27858;DHT22;16852;51.446;6.528;2023-05-14T10:15:36;24.00;99.90
27858;DHT22;16852;51.446;6.528;2023-05-14T10:17:37;24.10;99.90
27858;DHT22;16852;51.446;6.528;2023-05-14T10:19:40;24.10;99.00
27858;DHT22;16852;51.446;6.528;2023-05-14T10:21:44;24.10;96.80
27858;DHT22;16852;51.446;6.528;2023-05-14T10:23:45;24.10;99.00
27858;DHT22;16852;51.446;6.528;2023-05-14T10:25:47;24.10;95.90
27858;DHT22;16852;51.446;6.528;2023-05-14T10:27:48;23.80;95.50
27858;DHT22;16852;51.446;6.528;2023-05-14T10:29:53;23.70;96.50
27858;DHT22;16852;51.446;6.528;2023-05-14T10:31:54;23.80;98.20
27858;DHT22;16852;51.446;6.528;2023-05-14T10:33:54;23.90;98.80
27858;DHT22;16852;51.446;6.528;2023-05-14T10:36:00;24.00;99.00
27858;DHT22;16852;51.446;6.528;2023-05-14T10:38:07;24.10;99.00
27858;DHT22;16852;51.446;6.528;2023-05-14T10:40:08;24.10;99.20
27858;DHT22;16852;51.446;6.528;2023-05-14T10:42:15;24.10;98.00
27858;DHT22;16852;51.446;6.528;2023-05-14T10:44:16;24.20;97.10
27858;DHT22;16852;51.446;6.528;2023-05-14T10:46:17;24.30;96.20
27858;DHT22;16852;51.446;6.528;2023-05-14T10:48:17;24.10;94.90
27858;DHT22;16852;51.446;6.528;2023-05-14T10:50:19;24.20;98.30
27858;DHT22;16852;51.446;6.528;2023-05-14T10:52:20;24.20;97.30
27858;DHT22;16852;51.446;6.528;2023-05-14T10:54:22;24.30;93.20
27858;DHT22;16852;51.446;6.528;2023-05-14T10:56:22;24.30;95.30
27858;DHT22;16852;51.446;6.528;2023-05-14T10:58:23;24.40;95.80
27858;DHT22;16852;51.446;6.528;2023-05-14T11:00:24;24.40;90.00
27858;DHT22;16852;51.446;6.528;2023-05-14T11:02:34;24.30;91.50
27858;DHT22;16852;51.446;6.528;2023-05-14T11:04:36;24.10;90.60
27858;DHT22;16852;51.446;6.528;2023-05-14T11:06:37;24.10;93.30
27858;DHT22;16852;51.446;6.528;2023-05-14T11:08:38;24.20;94.30
27858;DHT22;16852;51.446;6.528;2023-05-14T11:10:41;24.30;94.10
27858;DHT22;16852;51.446;6.528;2023-05-14T11:12:43;24.30;94.60
27858;DHT22;16852;51.446;6.528;2023-05-14T11:14:44;24.40;94.30
27858;DHT22;16852;51.446;6.528;2023-05-14T11:16:46;24.50;92.50
27858;DHT22;16852;51.446;6.528;2023-05-14T11:18:47;24.50;92.70
27858;DHT22;16852;51.446;6.528;2023-05-14T11:20:52;24.60;93.30
27858;DHT22;16852;51.446;6.528;2023-05-14T11:22:52;24.40;85.90
27858;DHT22;16852;51.446;6.528;2023-05-14T11:24:54;24.40;91.50
27858;DHT22;16852;51.446;6.528;2023-05-14T11:26:55;24.50;91.40
27858;DHT22;16852;51.446;6.528;2023-05-14T11:28:55;24.60;91.10
27858;DHT22;16852;51.446;6.528;2023-05-14T11:30:56;24.70;91.00
27858;DHT22;16852;51.446;6.528;2023-05-14T11:32:57;24.70;91.60
27858;DHT22;16852;51.446;6.528;2023-05-14T11:34:57;24.80;90.80
27858;DHT22;16852;51.446;6.528;2023-05-14T11:36:58;24.80;90.60
27858;DHT22;16852;51.446;6.528;2023-05-14T11:39:01;24.80;90.50
27858;DHT22;16852;51.446;6.528;2023-05-14T11:41:02;24.90;86.60
27858;DHT22;16852;51.446;6.528;2023-05-14T11:43:04;24.90;86.10
27858;DHT22;16852;51.446;6.528;2023-05-14T11:45:05;24.90;87.50
27858;DHT22;16852;51.446;6.528;2023-05-14T11:47:06;24.90;89.00
27858;DHT22;16852;51.446;6.528;2023-05-14T11:49:07;25.00;87.70
27858;DHT22;16852;51.446;6.528;2023-05-14T11:51:07;24.90;82.80
27858;DHT22;16852;51.446;6.528;2023-05-14T11:53:08;24.80;80.40
27858;DHT22;16852;51.446;6.528;2023-05-14T11:55:12;24.50;84.60
27858;DHT22;16852;51.446;6.528;2023-05-14T11:57:17;24.60;87.30
27858;DHT22;16852;51.446;6.528;2023-05-14T11:59:18;24.60;86.50
27858;DHT22;16852;51.446;6.528;2023-05-14T12:01:19;24.60;88.70
27858;DHT22;16852;51.446;6.528;2023-05-14T12:03:20;24.50;87.00
27858;DHT22;16852;51.446;6.528;2023-05-14T12:05:24;24.50;86.50
27858;DHT22;16852;51.446;6.528;2023-05-14T12:07:28;24.50;86.30
27858;DHT22;16852;51.446;6.528;2023-05-14T12:09:28;24.40;86.00
27858;DHT22;16852;51.446;6.528;2023-05-14T12:11:32;24.40;87.10
27858;DHT22;16852;51.446;6.528;2023-05-14T12:13:35;24.40;90.00
27858;DHT22;16852;51.446;6.528;2023-05-14T12:15:36;24.30;83.70
27858;DHT22;16852;51.446;6.528;2023-05-14T12:17:37;24.30;86.30
27858;DHT22;16852;51.446;6.528;2023-05-14T12:19:39;24.30;87.40
27858;DHT22;16852;51.446;6.528;2023-05-14T12:21:46;24.30;85.00
27858;DHT22;16852;51.446;6.528;2023-05-14T12:23:56;24.30;89.30
27858;DHT22;16852;51.446;6.528;2023-05-14T12:26:05;24.30;89.40
27858;DHT22;16852;51.446;6.528;2023-05-14T12:28:13;24.30;87.10
27858;DHT22;16852;51.446;6.528;2023-05-14T12:30:14;24.30;87.30
27858;DHT22;16852;51.446;6.528;2023-05-14T12:32:16;24.30;90.00
27858;DHT22;16852;51.446;6.528;2023-05-14T12:34:17;24.30;90.20
27858;DHT22;16852;51.446;6.528;2023-05-14T12:36:18;24.30;89.80
27858;DHT22;16852;51.446;6.528;2023-05-14T12:38:19;24.40;89.40
27858;DHT22;16852;51.446;6.528;2023-05-14T12:40:19;24.50;85.70
27858;DHT22;16852;51.446;6.528;2023-05-14T12:42:20;24.50;86.00
27858;DHT22;16852;51.446;6.528;2023-05-14T12:44:21;24.50;86.80
27858;DHT22;16852;51.446;6.528;2023-05-14T12:46:22;24.40;87.30
27858;DHT22;16852;51.446;6.528;2023-05-14T12:48:22;24.50;85.20
27858;DHT22;16852;51.446;6.528;2023-05-14T12:50:23;24.50;85.30
27858;DHT22;16852;51.446;6.528;2023-05-14T12:52:23;24.50;84.80